sensor_id;sensor_type;location;lat;lon;timestamp;P1;durP1;ratioP1;P2;durP2;ratioP2
19800;SDS011;10060;48.274;12.214;2022-08-19T00:01:44;19.38;;;12.93;;
19800;SDS011;10060;48.274;12.214;2022-08-19T00:04:46;16.85;;;13.43;;
19800;SDS011;10060;48.274;12.214;2022-08-19T00:07:52;18.42;;;14.00;;
19800;SDS011;10060;48.274;12.214;2022-08-19T00:10:54;16.95;;;13.15;;
19800;SDS011;10060;48.274;12.214;2022-08-19T00:13:57;15.95;;;12.88;;
19800;SDS011;10060;48.274;12.214;2022-08-19T00:17:00;18.33;;;13.57;;
19800;SDS011;10060;48.274;12.214;2022-08-19T00:20:03;16.80;;;13.10;;
19800;SDS011;10060;48.274;12.214;2022-08-19T00:23:05;17.30;;;14.35;;
19800;SDS011;10060;48.274;12.214;2022-08-19T00:26:09;20.38;;;15.10;;
19800;SDS011;10060;48.274;12.214;2022-08-19T00:29:12;21.88;;;14.50;;
19800;SDS011;10060;48.274;12.214;2022-08-19T00:32:16;18.27;;;13.65;;
19800;SDS011;10060;48.274;12.214;2022-08-19T00:35:18;19.33;;;13.52;;
19800;SDS011;10060;48.274;12.214;2022-08-19T00:38:20;18.35;;;13.73;;
19800;SDS011;10060;48.274;12.214;2022-08-19T00:41:23;15.93;;;12.55;;
19800;SDS011;10060;48.274;12.214;2022-08-19T00:44:26;18.85;;;14.52;;
19800;SDS011;10060;48.274;12.214;2022-08-19T00:47:30;18.48;;;13.93;;
19800;SDS011;10060;48.274;12.214;2022-08-19T00:50:32;17.88;;;12.60;;
19800;SDS011;10060;48.274;12.214;2022-08-19T00:53:35;18.75;;;13.45;;
19800;SDS011;10060;48.274;12.214;2022-08-19T00:56:37;16.33;;;13.10;;
19800;SDS011;10060;48.274;12.214;2022-08-19T00:59:40;14.80;;;12.20;;
19800;SDS011;10060;48.274;12.214;2022-08-19T01:02:45;16.00;;;12.65;;
19800;SDS011;10060;48.274;12.214;2022-08-19T01:05:47;16.23;;;12.65;;
19800;SDS011;10060;48.274;12.214;2022-08-19T01:08:50;18.08;;;11.68;;
19800;SDS011;10060;48.274;12.214;2022-08-19T01:11:52;16.60;;;11.93;;
19800;SDS011;10060;48.274;12.214;2022-08-19T01:14:54;14.13;;;10.95;;
19800;SDS011;10060;48.274;12.214;2022-08-19T01:17:58;15.35;;;10.57;;
19800;SDS011;10060;48.274;12.214;2022-08-19T01:21:02;15.45;;;10.32;;
19800;SDS011;10060;48.274;12.214;2022-08-19T01:24:06;16.70;;;10.38;;
19800;SDS011;10060;48.274;12.214;2022-08-19T01:27:08;15.18;;;10.82;;
19800;SDS011;10060;48.274;12.214;2022-08-19T01:30:12;14.63;;;10.57;;
19800;SDS011;10060;48.274;12.214;2022-08-19T01:33:14;12.88;;;10.23;;
19800;SDS011;10060;48.274;12.214;2022-08-19T01:36:21;12.02;;;10.02;;
19800;SDS011;10060;48.274;12.214;2022-08-19T01:39:25;12.45;;;9.45;;
19800;SDS011;10060;48.274;12.214;2022-08-19T01:42:28;13.43;;;9.68;;
19800;SDS011;10060;48.274;12.214;2022-08-19T01:45:32;10.80;;;9.63;;
19800;SDS011;10060;48.274;12.214;2022-08-19T01:48:35;12.88;;;9.73;;
19800;SDS011;10060;48.274;12.214;2022-08-19T01:51:37;12.88;;;9.85;;
19800;SDS011;10060;48.274;12.214;2022-08-19T01:54:41;13.45;;;9.35;;
19800;SDS011;10060;48.274;12.214;2022-08-19T01:57:44;10.85;;;8.95;;
19800;SDS011;10060;48.274;12.214;2022-08-19T02:00:48;11.52;;;9.85;;
19800;SDS011;10060;48.274;12.214;2022-08-19T02:03:50;9.88;;;8.45;;
19800;SDS011;10060;48.274;12.214;2022-08-19T02:06:53;11.52;;;8.65;;
19800;SDS011;10060;48.274;12.214;2022-08-19T02:09:57;11.32;;;8.52;;
19800;SDS011;10060;48.274;12.214;2022-08-19T02:12:59;11.55;;;9.68;;
19800;SDS011;10060;48.274;12.214;2022-08-19T02:16:01;11.65;;;9.18;;
19800;SDS011;10060;48.274;12.214;2022-08-19T02:19:03;11.77;;;9.05;;
19800;SDS011;10060;48.274;12.214;2022-08-19T02:22:07;10.75;;;9.13;;
19800;SDS011;10060;48.274;12.214;2022-08-19T02:25:11;12.00;;;9.30;;
19800;SDS011;10060;48.274;12.214;2022-08-19T02:28:13;13.40;;;9.55;;
19800;SDS011;10060;48.274;12.214;2022-08-19T02:31:16;11.52;;;9.65;;
19800;SDS011;10060;48.274;12.214;2022-08-19T02:34:19;14.65;;;9.20;;
19800;SDS011;10060;48.274;12.214;2022-08-19T02:37:21;14.20;;;9.20;;
19800;SDS011;10060;48.274;12.214;2022-08-19T02:40:47;12.48;;;9.52;;
19800;SDS011;10060;48.274;12.214;2022-08-19T02:43:49;13.90;;;9.65;;
19800;SDS011;10060;48.274;12.214;2022-08-19T02:46:51;14.73;;;10.40;;
19800;SDS011;10060;48.274;12.214;2022-08-19T02:49:53;14.55;;;10.63;;
19800;SDS011;10060;48.274;12.214;2022-08-19T02:52:55;13.90;;;10.60;;
19800;SDS011;10060;48.274;12.214;2022-08-19T02:55:59;16.55;;;10.50;;
19800;SDS011;10060;48.274;12.214;2022-08-19T02:59:01;12.60;;;10.13;;
19800;SDS011;10060;48.274;12.214;2022-08-19T03:02:09;12.20;;;10.50;;
19800;SDS011;10060;48.274;12.214;2022-08-19T03:05:12;13.40;;;10.50;;
19800;SDS011;10060;48.274;12.214;2022-08-19T03:08:14;14.13;;;11.05;;
19800;SDS011;10060;48.274;12.214;2022-08-19T03:11:18;15.27;;;10.82;;
19800;SDS011;10060;48.274;12.214;2022-08-19T03:14:21;14.43;;;10.82;;
19800;SDS011;10060;48.274;12.214;2022-08-19T03:20:29;15.20;;;11.57;;
19800;SDS011;10060;48.274;12.214;2022-08-19T03:23:31;14.95;;;11.35;;
19800;SDS011;10060;48.274;12.214;2022-08-19T03:26:37;15.10;;;10.57;;
19800;SDS011;10060;48.274;12.214;2022-08-19T03:29:40;14.48;;;10.90;;
19800;SDS011;10060;48.274;12.214;2022-08-19T03:32:42;18.05;;;11.20;;
19800;SDS011;10060;48.274;12.214;2022-08-19T03:35:44;13.20;;;10.48;;
19800;SDS011;10060;48.274;12.214;2022-08-19T03:38:47;13.40;;;10.63;;
19800;SDS011;10060;48.274;12.214;2022-08-19T03:41:51;13.60;;;10.40;;
19800;SDS011;10060;48.274;12.214;2022-08-19T03:44:57;13.20;;;10.18;;
19800;SDS011;10060;48.274;12.214;2022-08-19T03:47:59;11.70;;;9.63;;
19800;SDS011;10060;48.274;12.214;2022-08-19T03:51:01;13.20;;;10.43;;
19800;SDS011;10060;48.274;12.214;2022-08-19T03:54:04;12.45;;;10.25;;
19800;SDS011;10060;48.274;12.214;2022-08-19T03:57:08;14.43;;;9.88;;
19800;SDS011;10060;48.274;12.214;2022-08-19T04:00:11;13.93;;;10.48;;
19800;SDS011;10060;48.274;12.214;2022-08-19T04:03:13;12.73;;;10.00;;
19800;SDS011;10060;48.274;12.214;2022-08-19T04:06:18;10.75;;;8.82;;
19800;SDS011;10060;48.274;12.214;2022-08-19T04:09:21;15.40;;;9.68;;
19800;SDS011;10060;48.274;12.214;2022-08-19T04:12:24;13.38;;;9.18;;
19800;SDS011;10060;48.274;12.214;2022-08-19T04:15:27;11.10;;;9.25;;
19800;SDS011;10060;48.274;12.214;2022-08-19T04:18:33;14.40;;;11.27;;
19800;SDS011;10060;48.274;12.214;2022-08-19T04:21:35;12.10;;;9.15;;
19800;SDS011;10060;48.274;12.214;2022-08-19T04:24:37;11.15;;;8.90;;
19800;SDS011;10060;48.274;12.214;2022-08-19T04:27:41;12.35;;;8.35;;
19800;SDS011;10060;48.274;12.214;2022-08-19T04:30:47;12.73;;;9.55;;
19800;SDS011;10060;48.274;12.214;2022-08-19T04:33:49;12.68;;;9.52;;
19800;SDS011;10060;48.274;12.214;2022-08-19T04:36:52;13.55;;;10.38;;
19800;SDS011;10060;48.274;12.214;2022-08-19T04:39:54;13.52;;;10.07;;
19800;SDS011;10060;48.274;12.214;2022-08-19T04:43:15;14.95;;;11.10;;
19800;SDS011;10060;48.274;12.214;2022-08-19T04:46:17;15.05;;;10.70;;
19800;SDS011;10060;48.274;12.214;2022-08-19T04:49:20;12.57;;;10.38;;
19800;SDS011;10060;48.274;12.214;2022-08-19T04:52:23;12.77;;;10.25;;
19800;SDS011;10060;48.274;12.214;2022-08-19T04:55:25;13.07;;;10.32;;
19800;SDS011;10060;48.274;12.214;2022-08-19T04:58:28;12.82;;;10.80;;
19800;SDS011;10060;48.274;12.214;2022-08-19T05:01:31;12.25;;;9.68;;
19800;SDS011;10060;48.274;12.214;2022-08-19T05:04:35;15.68;;;10.93;;
19800;SDS011;10060;48.274;12.214;2022-08-19T05:07:39;13.48;;;10.85;;
19800;SDS011;10060;48.274;12.214;2022-08-19T05:10:41;15.73;;;10.70;;
19800;SDS011;10060;48.274;12.214;2022-08-19T05:13:46;15.10;;;11.45;;
19800;SDS011;10060;48.274;12.214;2022-08-19T05:16:48;13.93;;;10.55;;
19800;SDS011;10060;48.274;12.214;2022-08-19T05:19:51;15.20;;;11.30;;
19800;SDS011;10060;48.274;12.214;2022-08-19T05:23:10;14.77;;;10.90;;
19800;SDS011;10060;48.274;12.214;2022-08-19T05:26:15;17.58;;;11.50;;
19800;SDS011;10060;48.274;12.214;2022-08-19T05:29:19;15.77;;;11.35;;
19800;SDS011;10060;48.274;12.214;2022-08-19T05:32:22;14.23;;;11.50;;
19800;SDS011;10060;48.274;12.214;2022-08-19T05:35:24;13.27;;;10.95;;
19800;SDS011;10060;48.274;12.214;2022-08-19T05:38:26;15.98;;;11.15;;
19800;SDS011;10060;48.274;12.214;2022-08-19T05:41:28;16.52;;;11.70;;
19800;SDS011;10060;48.274;12.214;2022-08-19T05:44:33;15.13;;;12.23;;
19800;SDS011;10060;48.274;12.214;2022-08-19T05:47:36;14.25;;;11.38;;
19800;SDS011;10060;48.274;12.214;2022-08-19T05:50:38;16.25;;;12.05;;
19800;SDS011;10060;48.274;12.214;2022-08-19T05:53:41;14.95;;;11.90;;
19800;SDS011;10060;48.274;12.214;2022-08-19T05:56:45;15.82;;;12.77;;
19800;SDS011;10060;48.274;12.214;2022-08-19T05:59:48;14.82;;;11.52;;
19800;SDS011;10060;48.274;12.214;2022-08-19T06:02:51;15.70;;;11.88;;
19800;SDS011;10060;48.274;12.214;2022-08-19T06:05:54;17.55;;;12.63;;
19800;SDS011;10060;48.274;12.214;2022-08-19T06:08:58;16.08;;;11.88;;
19800;SDS011;10060;48.274;12.214;2022-08-19T06:12:00;15.05;;;12.10;;
19800;SDS011;10060;48.274;12.214;2022-08-19T06:15:07;13.93;;;12.00;;
19800;SDS011;10060;48.274;12.214;2022-08-19T06:18:09;16.85;;;12.55;;
19800;SDS011;10060;48.274;12.214;2022-08-19T06:21:11;19.42;;;13.00;;
19800;SDS011;10060;48.274;12.214;2022-08-19T06:24:15;14.75;;;11.80;;
19800;SDS011;10060;48.274;12.214;2022-08-19T06:27:17;15.32;;;11.15;;
19800;SDS011;10060;48.274;12.214;2022-08-19T06:30:21;16.10;;;11.50;;
19800;SDS011;10060;48.274;12.214;2022-08-19T06:33:23;16.58;;;11.73;;
19800;SDS011;10060;48.274;12.214;2022-08-19T06:36:26;14.80;;;11.43;;
19800;SDS011;10060;48.274;12.214;2022-08-19T06:39:30;15.70;;;11.55;;
19800;SDS011;10060;48.274;12.214;2022-08-19T06:42:33;13.73;;;11.13;;
19800;SDS011;10060;48.274;12.214;2022-08-19T06:45:37;15.43;;;11.07;;
19800;SDS011;10060;48.274;12.214;2022-08-19T06:48:39;14.40;;;10.52;;
19800;SDS011;10060;48.274;12.214;2022-08-19T06:51:42;14.45;;;11.10;;
19800;SDS011;10060;48.274;12.214;2022-08-19T06:54:44;14.07;;;10.30;;
19800;SDS011;10060;48.274;12.214;2022-08-19T06:57:46;17.27;;;11.65;;
19800;SDS011;10060;48.274;12.214;2022-08-19T07:00:54;15.90;;;11.80;;
19800;SDS011;10060;48.274;12.214;2022-08-19T07:03:57;15.95;;;11.60;;
19800;SDS011;10060;48.274;12.214;2022-08-19T07:07:02;15.48;;;11.57;;
19800;SDS011;10060;48.274;12.214;2022-08-19T07:10:06;16.98;;;12.05;;
19800;SDS011;10060;48.274;12.214;2022-08-19T07:13:09;18.70;;;12.93;;
19800;SDS011;10060;48.274;12.214;2022-08-19T07:16:14;20.17;;;13.70;;
19800;SDS011;10060;48.274;12.214;2022-08-19T07:19:17;17.40;;;12.45;;
19800;SDS011;10060;48.274;12.214;2022-08-19T07:22:19;19.17;;;13.05;;
19800;SDS011;10060;48.274;12.214;2022-08-19T07:25:22;19.00;;;13.93;;
19800;SDS011;10060;48.274;12.214;2022-08-19T07:28:24;17.92;;;12.88;;
19800;SDS011;10060;48.274;12.214;2022-08-19T07:31:28;17.00;;;12.52;;
19800;SDS011;10060;48.274;12.214;2022-08-19T07:34:30;18.90;;;13.75;;
19800;SDS011;10060;48.274;12.214;2022-08-19T07:37:34;18.00;;;12.80;;
19800;SDS011;10060;48.274;12.214;2022-08-19T07:40:37;17.58;;;14.30;;
19800;SDS011;10060;48.274;12.214;2022-08-19T07:43:40;18.45;;;14.32;;
19800;SDS011;10060;48.274;12.214;2022-08-19T07:46:45;18.73;;;13.07;;
19800;SDS011;10060;48.274;12.214;2022-08-19T07:49:48;20.95;;;14.70;;
19800;SDS011;10060;48.274;12.214;2022-08-19T07:52:51;21.95;;;14.80;;
19800;SDS011;10060;48.274;12.214;2022-08-19T07:55:53;21.38;;;14.80;;
19800;SDS011;10060;48.274;12.214;2022-08-19T07:58:55;19.00;;;13.77;;
19800;SDS011;10060;48.274;12.214;2022-08-19T08:01:58;22.45;;;14.35;;
19800;SDS011;10060;48.274;12.214;2022-08-19T08:05:02;24.40;;;14.93;;
19800;SDS011;10060;48.274;12.214;2022-08-19T08:08:22;22.45;;;15.73;;
19800;SDS011;10060;48.274;12.214;2022-08-19T08:11:43;23.92;;;16.27;;
19800;SDS011;10060;48.274;12.214;2022-08-19T08:14:49;22.63;;;15.77;;
19800;SDS011;10060;48.274;12.214;2022-08-19T08:17:53;21.00;;;15.52;;
19800;SDS011;10060;48.274;12.214;2022-08-19T08:20:57;21.77;;;15.80;;
19800;SDS011;10060;48.274;12.214;2022-08-19T08:24:00;20.85;;;15.70;;
19800;SDS011;10060;48.274;12.214;2022-08-19T08:27:02;24.08;;;16.77;;
19800;SDS011;10060;48.274;12.214;2022-08-19T08:30:05;24.80;;;16.42;;
19800;SDS011;10060;48.274;12.214;2022-08-19T08:33:10;24.30;;;16.83;;
19800;SDS011;10060;48.274;12.214;2022-08-19T08:36:13;24.33;;;16.60;;
19800;SDS011;10060;48.274;12.214;2022-08-19T08:39:16;22.88;;;16.85;;
19800;SDS011;10060;48.274;12.214;2022-08-19T08:42:19;23.75;;;16.88;;
19800;SDS011;10060;48.274;12.214;2022-08-19T08:45:23;23.30;;;15.82;;
19800;SDS011;10060;48.274;12.214;2022-08-19T08:48:30;25.23;;;17.40;;
19800;SDS011;10060;48.274;12.214;2022-08-19T08:51:34;23.02;;;16.90;;
19800;SDS011;10060;48.274;12.214;2022-08-19T08:54:39;26.33;;;18.77;;
19800;SDS011;10060;48.274;12.214;2022-08-19T08:57:49;25.75;;;18.80;;
19800;SDS011;10060;48.274;12.214;2022-08-19T09:00:54;25.73;;;17.90;;
19800;SDS011;10060;48.274;12.214;2022-08-19T09:03:58;27.83;;;17.40;;
19800;SDS011;10060;48.274;12.214;2022-08-19T09:07:03;28.90;;;17.63;;
19800;SDS011;10060;48.274;12.214;2022-08-19T09:10:10;24.35;;;18.13;;
19800;SDS011;10060;48.274;12.214;2022-08-19T09:13:15;24.98;;;18.42;;
19800;SDS011;10060;48.274;12.214;2022-08-19T09:16:20;24.05;;;17.77;;
19800;SDS011;10060;48.274;12.214;2022-08-19T09:19:29;24.83;;;18.02;;
19800;SDS011;10060;48.274;12.214;2022-08-19T09:22:31;27.40;;;18.73;;
19800;SDS011;10060;48.274;12.214;2022-08-19T09:25:33;26.05;;;17.65;;
19800;SDS011;10060;48.274;12.214;2022-08-19T09:28:35;28.60;;;19.17;;
19800;SDS011;10060;48.274;12.214;2022-08-19T09:31:38;27.08;;;18.42;;
19800;SDS011;10060;48.274;12.214;2022-08-19T09:34:41;26.70;;;18.25;;
19800;SDS011;10060;48.274;12.214;2022-08-19T09:37:43;28.92;;;18.52;;
19800;SDS011;10060;48.274;12.214;2022-08-19T09:40:46;29.25;;;19.00;;
19800;SDS011;10060;48.274;12.214;2022-08-19T09:43:49;24.98;;;17.52;;
19800;SDS011;10060;48.274;12.214;2022-08-19T09:46:53;27.05;;;18.60;;
19800;SDS011;10060;48.274;12.214;2022-08-19T09:49:57;25.90;;;17.77;;
19800;SDS011;10060;48.274;12.214;2022-08-19T09:52:59;24.58;;;17.48;;
19800;SDS011;10060;48.274;12.214;2022-08-19T09:56:01;27.38;;;18.63;;
19800;SDS011;10060;48.274;12.214;2022-08-19T09:59:03;25.88;;;18.58;;
19800;SDS011;10060;48.274;12.214;2022-08-19T10:02:07;28.88;;;18.90;;
19800;SDS011;10060;48.274;12.214;2022-08-19T10:05:11;25.52;;;18.75;;
19800;SDS011;10060;48.274;12.214;2022-08-19T10:08:32;27.30;;;18.95;;
19800;SDS011;10060;48.274;12.214;2022-08-19T10:11:35;29.27;;;19.08;;
19800;SDS011;10060;48.274;12.214;2022-08-19T10:14:37;28.17;;;19.90;;
19800;SDS011;10060;48.274;12.214;2022-08-19T10:17:40;26.88;;;18.67;;
19800;SDS011;10060;48.274;12.214;2022-08-19T10:20:43;28.15;;;19.77;;
19800;SDS011;10060;48.274;12.214;2022-08-19T10:23:46;30.17;;;19.85;;
19800;SDS011;10060;48.274;12.214;2022-08-19T10:26:49;26.42;;;18.25;;
19800;SDS011;10060;48.274;12.214;2022-08-19T10:29:51;27.77;;;18.90;;
19800;SDS011;10060;48.274;12.214;2022-08-19T10:32:53;25.15;;;19.08;;
19800;SDS011;10060;48.274;12.214;2022-08-19T10:35:59;28.58;;;20.40;;
19800;SDS011;10060;48.274;12.214;2022-08-19T10:39:03;25.45;;;18.73;;
19800;SDS011;10060;48.274;12.214;2022-08-19T10:42:05;27.30;;;18.50;;
19800;SDS011;10060;48.274;12.214;2022-08-19T10:45:10;27.52;;;19.25;;
19800;SDS011;10060;48.274;12.214;2022-08-19T10:48:12;24.85;;;18.25;;
19800;SDS011;10060;48.274;12.214;2022-08-19T10:51:16;20.25;;;15.88;;
19800;SDS011;10060;48.274;12.214;2022-08-19T10:54:36;19.75;;;14.38;;
19800;SDS011;10060;48.274;12.214;2022-08-19T10:57:56;19.45;;;15.02;;
19800;SDS011;10060;48.274;12.214;2022-08-19T11:00:58;19.83;;;14.50;;
19800;SDS011;10060;48.274;12.214;2022-08-19T11:04:00;19.77;;;14.48;;
19800;SDS011;10060;48.274;12.214;2022-08-19T11:07:04;21.20;;;14.88;;
19800;SDS011;10060;48.274;12.214;2022-08-19T11:10:08;19.40;;;15.38;;
19800;SDS011;10060;48.274;12.214;2022-08-19T11:13:10;18.75;;;13.57;;
19800;SDS011;10060;48.274;12.214;2022-08-19T11:16:15;12.98;;;10.95;;
19800;SDS011;10060;48.274;12.214;2022-08-19T11:19:17;16.80;;;12.20;;
19800;SDS011;10060;48.274;12.214;2022-08-19T11:22:21;14.13;;;11.63;;
19800;SDS011;10060;48.274;12.214;2022-08-19T11:25:23;13.73;;;10.90;;
19800;SDS011;10060;48.274;12.214;2022-08-19T11:28:25;13.55;;;11.02;;
19800;SDS011;10060;48.274;12.214;2022-08-19T11:31:29;12.45;;;10.52;;
19800;SDS011;10060;48.274;12.214;2022-08-19T11:34:31;15.50;;;11.27;;
19800;SDS011;10060;48.274;12.214;2022-08-19T11:37:36;20.63;;;11.57;;
19800;SDS011;10060;48.274;12.214;2022-08-19T11:40:39;13.93;;;11.32;;
19800;SDS011;10060;48.274;12.214;2022-08-19T11:43:42;14.05;;;11.45;;
19800;SDS011;10060;48.274;12.214;2022-08-19T11:46:45;15.15;;;11.85;;
19800;SDS011;10060;48.274;12.214;2022-08-19T11:49:47;16.48;;;12.75;;
19800;SDS011;10060;48.274;12.214;2022-08-19T11:52:51;16.52;;;13.45;;
19800;SDS011;10060;48.274;12.214;2022-08-19T11:55:54;13.52;;;11.75;;
19800;SDS011;10060;48.274;12.214;2022-08-19T11:58:57;14.88;;;11.77;;
19800;SDS011;10060;48.274;12.214;2022-08-19T12:01:59;12.35;;;9.90;;
19800;SDS011;10060;48.274;12.214;2022-08-19T12:05:01;5.25;;;4.53;;
19800;SDS011;10060;48.274;12.214;2022-08-19T12:08:05;5.82;;;5.20;;
19800;SDS011;10060;48.274;12.214;2022-08-19T12:11:07;9.38;;;8.30;;
19800;SDS011;10060;48.274;12.214;2022-08-19T12:14:10;10.50;;;9.25;;
19800;SDS011;10060;48.274;12.214;2022-08-19T12:17:14;12.70;;;9.93;;
19800;SDS011;10060;48.274;12.214;2022-08-19T12:20:16;11.85;;;9.63;;
19800;SDS011;10060;48.274;12.214;2022-08-19T12:23:20;9.57;;;7.63;;
19800;SDS011;10060;48.274;12.214;2022-08-19T12:26:23;9.88;;;8.07;;
19800;SDS011;10060;48.274;12.214;2022-08-19T12:29:25;11.73;;;8.93;;
19800;SDS011;10060;48.274;12.214;2022-08-19T12:32:28;11.55;;;9.30;;
19800;SDS011;10060;48.274;12.214;2022-08-19T12:35:30;12.90;;;10.02;;
19800;SDS011;10060;48.274;12.214;2022-08-19T12:38:34;14.57;;;10.25;;
19800;SDS011;10060;48.274;12.214;2022-08-19T12:41:37;15.18;;;10.98;;
19800;SDS011;10060;48.274;12.214;2022-08-19T12:44:40;15.27;;;11.27;;
19800;SDS011;10060;48.274;12.214;2022-08-19T12:47:44;12.98;;;9.90;;
19800;SDS011;10060;48.274;12.214;2022-08-19T12:50:46;14.35;;;10.98;;
19800;SDS011;10060;48.274;12.214;2022-08-19T12:53:50;17.45;;;13.32;;
19800;SDS011;10060;48.274;12.214;2022-08-19T12:56:52;18.55;;;12.40;;
19800;SDS011;10060;48.274;12.214;2022-08-19T12:59:54;16.15;;;12.27;;
19800;SDS011;10060;48.274;12.214;2022-08-19T13:02:57;17.63;;;13.48;;
19800;SDS011;10060;48.274;12.214;2022-08-19T13:05:59;18.42;;;14.32;;
19800;SDS011;10060;48.274;12.214;2022-08-19T13:09:02;17.48;;;13.57;;
19800;SDS011;10060;48.274;12.214;2022-08-19T13:12:05;17.98;;;14.35;;
19800;SDS011;10060;48.274;12.214;2022-08-19T13:15:13;19.40;;;14.50;;
19800;SDS011;10060;48.274;12.214;2022-08-19T13:18:18;15.85;;;12.77;;
19800;SDS011;10060;48.274;12.214;2022-08-19T13:21:20;15.38;;;11.65;;
19800;SDS011;10060;48.274;12.214;2022-08-19T13:24:24;16.23;;;12.77;;
19800;SDS011;10060;48.274;12.214;2022-08-19T13:27:28;17.02;;;12.80;;
19800;SDS011;10060;48.274;12.214;2022-08-19T13:30:30;16.65;;;9.70;;
19800;SDS011;10060;48.274;12.214;2022-08-19T13:33:52;15.38;;;11.07;;
19800;SDS011;10060;48.274;12.214;2022-08-19T13:36:54;11.45;;;8.98;;
19800;SDS011;10060;48.274;12.214;2022-08-19T13:39:58;8.82;;;7.10;;
19800;SDS011;10060;48.274;12.214;2022-08-19T13:43:00;8.43;;;7.43;;
19800;SDS011;10060;48.274;12.214;2022-08-19T13:46:07;7.40;;;6.28;;
19800;SDS011;10060;48.274;12.214;2022-08-19T13:49:09;4.85;;;4.20;;
19800;SDS011;10060;48.274;12.214;2022-08-19T13:52:12;4.45;;;3.63;;
19800;SDS011;10060;48.274;12.214;2022-08-19T13:55:16;4.28;;;3.80;;
19800;SDS011;10060;48.274;12.214;2022-08-19T13:58:18;5.03;;;3.60;;
19800;SDS011;10060;48.274;12.214;2022-08-19T14:01:22;4.32;;;3.47;;
19800;SDS011;10060;48.274;12.214;2022-08-19T14:04:26;3.35;;;3.05;;
19800;SDS011;10060;48.274;12.214;2022-08-19T14:07:28;4.47;;;3.38;;
19800;SDS011;10060;48.274;12.214;2022-08-19T14:10:32;3.55;;;2.95;;
19800;SDS011;10060;48.274;12.214;2022-08-19T14:13:34;4.10;;;2.53;;
19800;SDS011;10060;48.274;12.214;2022-08-19T14:16:36;2.20;;;1.90;;
19800;SDS011;10060;48.274;12.214;2022-08-19T14:19:38;3.42;;;1.92;;
19800;SDS011;10060;48.274;12.214;2022-08-19T14:22:40;1.75;;;1.65;;
19800;SDS011;10060;48.274;12.214;2022-08-19T14:25:44;1.83;;;1.45;;
19800;SDS011;10060;48.274;12.214;2022-08-19T14:28:46;1.95;;;1.58;;
19800;SDS011;10060;48.274;12.214;2022-08-19T14:31:49;1.70;;;1.50;;
19800;SDS011;10060;48.274;12.214;2022-08-19T14:34:51;1.90;;;1.52;;
19800;SDS011;10060;48.274;12.214;2022-08-19T14:37:54;1.70;;;1.55;;
19800;SDS011;10060;48.274;12.214;2022-08-19T14:41:07;4.30;;;1.40;;
19800;SDS011;10060;48.274;12.214;2022-08-19T14:44:09;2.78;;;1.42;;
19800;SDS011;10060;48.274;12.214;2022-08-19T14:47:12;1.80;;;1.50;;
19800;SDS011;10060;48.274;12.214;2022-08-19T14:50:14;1.75;;;1.63;;
19800;SDS011;10060;48.274;12.214;2022-08-19T14:53:16;2.10;;;1.75;;
19800;SDS011;10060;48.274;12.214;2022-08-19T14:56:21;2.65;;;1.83;;
19800;SDS011;10060;48.274;12.214;2022-08-19T14:59:23;2.05;;;1.80;;
19800;SDS011;10060;48.274;12.214;2022-08-19T15:02:25;2.20;;;2.00;;
19800;SDS011;10060;48.274;12.214;2022-08-19T15:05:27;2.30;;;2.08;;
19800;SDS011;10060;48.274;12.214;2022-08-19T15:08:31;2.92;;;2.20;;
19800;SDS011;10060;48.274;12.214;2022-08-19T15:11:35;2.03;;;1.85;;
19800;SDS011;10060;48.274;12.214;2022-08-19T15:14:38;1.95;;;1.67;;
19800;SDS011;10060;48.274;12.214;2022-08-19T15:17:42;1.58;;;1.48;;
19800;SDS011;10060;48.274;12.214;2022-08-19T15:20:44;1.30;;;1.20;;
19800;SDS011;10060;48.274;12.214;2022-08-19T15:23:48;1.73;;;1.63;;
19800;SDS011;10060;48.274;12.214;2022-08-19T15:26:52;2.00;;;1.65;;
19800;SDS011;10060;48.274;12.214;2022-08-19T15:29:55;1.90;;;1.70;;
19800;SDS011;10060;48.274;12.214;2022-08-19T15:32:58;2.08;;;1.73;;
19800;SDS011;10060;48.274;12.214;2022-08-19T15:36:01;1.52;;;0.90;;
19800;SDS011;10060;48.274;12.214;2022-08-19T15:39:04;0.90;;;0.90;;
19800;SDS011;10060;48.274;12.214;2022-08-19T15:42:07;1.70;;;1.25;;
19800;SDS011;10060;48.274;12.214;2022-08-19T15:45:10;2.28;;;1.92;;
19800;SDS011;10060;48.274;12.214;2022-08-19T15:48:12;2.30;;;1.80;;
19800;SDS011;10060;48.274;12.214;2022-08-19T15:51:15;1.30;;;1.20;;
19800;SDS011;10060;48.274;12.214;2022-08-19T15:54:19;2.13;;;1.58;;
19800;SDS011;10060;48.274;12.214;2022-08-19T15:57:23;2.03;;;1.83;;
19800;SDS011;10060;48.274;12.214;2022-08-19T16:00:43;2.08;;;1.88;;
19800;SDS011;10060;48.274;12.214;2022-08-19T16:04:08;3.00;;;2.20;;
19800;SDS011;10060;48.274;12.214;2022-08-19T16:07:28;2.83;;;2.63;;
19800;SDS011;10060;48.274;12.214;2022-08-19T16:10:30;3.22;;;2.75;;
19800;SDS011;10060;48.274;12.214;2022-08-19T16:13:33;3.20;;;2.80;;
19800;SDS011;10060;48.274;12.214;2022-08-19T16:16:36;3.05;;;2.72;;
19800;SDS011;10060;48.274;12.214;2022-08-19T16:19:38;2.70;;;2.40;;
19800;SDS011;10060;48.274;12.214;2022-08-19T16:22:41;4.05;;;3.45;;
19800;SDS011;10060;48.274;12.214;2022-08-19T16:25:43;4.07;;;3.50;;
19800;SDS011;10060;48.274;12.214;2022-08-19T16:28:46;5.38;;;4.45;;
19800;SDS011;10060;48.274;12.214;2022-08-19T16:31:49;5.20;;;4.70;;
19800;SDS011;10060;48.274;12.214;2022-08-19T16:34:53;6.82;;;5.78;;
19800;SDS011;10060;48.274;12.214;2022-08-19T16:37:55;8.32;;;6.05;;
19800;SDS011;10060;48.274;12.214;2022-08-19T16:40:57;9.02;;;7.43;;
19800;SDS011;10060;48.274;12.214;2022-08-19T16:44:01;9.57;;;6.45;;
19800;SDS011;10060;48.274;12.214;2022-08-19T16:47:04;9.45;;;7.25;;
19800;SDS011;10060;48.274;12.214;2022-08-19T16:50:06;10.15;;;8.00;;
19800;SDS011;10060;48.274;12.214;2022-08-19T16:53:08;9.48;;;7.45;;
19800;SDS011;10060;48.274;12.214;2022-08-19T16:56:11;11.18;;;8.15;;
19800;SDS011;10060;48.274;12.214;2022-08-19T16:59:14;12.43;;;8.25;;
19800;SDS011;10060;48.274;12.214;2022-08-19T17:02:17;9.85;;;8.35;;
19800;SDS011;10060;48.274;12.214;2022-08-19T17:05:19;11.05;;;8.73;;
19800;SDS011;10060;48.274;12.214;2022-08-19T17:08:23;16.52;;;9.80;;
19800;SDS011;10060;48.274;12.214;2022-08-19T17:11:26;11.98;;;9.65;;
19800;SDS011;10060;48.274;12.214;2022-08-19T17:14:30;11.73;;;8.85;;
19800;SDS011;10060;48.274;12.214;2022-08-19T17:17:32;12.60;;;9.80;;
19800;SDS011;10060;48.274;12.214;2022-08-19T17:20:36;12.88;;;9.85;;
19800;SDS011;10060;48.274;12.214;2022-08-19T17:23:38;12.40;;;10.10;;
19800;SDS011;10060;48.274;12.214;2022-08-19T17:26:40;10.95;;;9.50;;
19800;SDS011;10060;48.274;12.214;2022-08-19T17:29:44;11.70;;;9.52;;
19800;SDS011;10060;48.274;12.214;2022-08-19T17:32:46;14.75;;;9.45;;
19800;SDS011;10060;48.274;12.214;2022-08-19T17:35:49;13.05;;;8.82;;
19800;SDS011;10060;48.274;12.214;2022-08-19T17:38:51;9.40;;;8.32;;
19800;SDS011;10060;48.274;12.214;2022-08-19T17:41:54;11.50;;;9.25;;
19800;SDS011;10060;48.274;12.214;2022-08-19T17:44:57;11.80;;;8.50;;
19800;SDS011;10060;48.274;12.214;2022-08-19T17:48:00;10.43;;;7.28;;
19800;SDS011;10060;48.274;12.214;2022-08-19T17:51:11;7.93;;;7.03;;